City of Colorado Springs Municipal Airport Colorado Springs US
ICAO: KCOS
IATA: COS
Category: Large
Scheduled Services: Yes

Elevation: 6187 ft
TransAlt. 18000 ft.

Airport Communications:
SPRINGS APP:118.5
ATIS:125
CLNC DEL:134.45
CTAF:124.15
SPRINGS DEP:124
GND:121.7
AFRC OPS:29.84
PMSV PETERSON METRO:34.92
PETERSON PTD:122.85
DENVER RDO:122.25
SPRINGS TWR:119.9
UNICOM:122.95

KCOS Zoom In..

Runways:

(A) RW 13 length 8269 ft width 150 ft
---- / hdg 126

(B) RW 17L length 13501 ft width 150 ft
ILS 109.10 / hdg 171

(C) RW 17R length 11022 ft width 150 ft
---- / hdg 171

(D) RW 31 length 8269 ft width 150 ft
---- / hdg 306

(E) RW 35L length 11022 ft width 150 ft
ILS 109.90 / hdg 351

(F) RW 35R length 13501 ft width 150 ft
ILS 109.10 / hdg 351

Location; KCOS
Day. 29 / Time. 21.54 Zulu
* Altimeter: 30.23
* Temperature: 26° c. 78.8°f.
* Wind from: 230° Speed 09 kn.
Dewpoint: 06° c.
Visibility: 10 Statute Miles.
Clouds: Scattered 11000 ft.
Clouds: Broken 14000 ft.
Clouds: Broken 23000 ft.
Conditions: Cumulonimbus.

KCOS 292154Z 23009KT 10SM SCT110 BKN140 BKN230 26/06 A3023 RMK AO2 WSHFT 2056 SLP162 CB DSNT NW MOV SE T02560056


Wind From 230°
Speed 09 kn.

 
 
jpsmedia worldairports.se 2020   terms of use